Time,TemperatureF,DewpointF,PressureIn,WindDirection,WindDirectionDegrees,WindSpeedMPH,WindSpeedGustMPH,Humidity,HourlyPrecipIn,Conditions,Clouds,dailyrainin,SoftwareType,DateUTC
2013-03-01 00:00:00,18.8,12.5,30.08,NE,56,10.0,17.0,76,0.00,,---,0.00,VWS V14.01,2013-03-01 05:00:00,
2013-03-01 00:01:00,18.8,12.5,30.08,ENE,61,9.0,17.0,76,0.00,,---,0.00,VWS V14.01,2013-03-01 05:01:00,
2013-03-01 00:06:00,18.6,12.3,30.08,ENE,59,7.0,11.0,76,0.00,,---,0.00,VWS V14.01,2013-03-01 05:06:00,
2013-03-01 00:11:00,18.5,12.2,30.08,NE,43,2.0,11.0,76,0.00,,---,0.00,VWS V14.01,2013-03-01 05:11:00,
2013-03-01 00:16:00,18.3,12.3,30.08,ENE,70,12.0,17.0,77,0.00,,---,0.00,VWS V14.01,2013-03-01 05:16:00,
2013-03-01 00:21:00,18.2,11.9,30.08,ENE,63,13.0,17.0,76,0.00,,---,0.00,VWS V14.01,2013-03-01 05:21:00,
2013-03-01 00:26:00,18.0,11.7,30.08,ENE,71,7.0,17.0,76,0.00,,---,0.00,VWS V14.01,2013-03-01 05:26:00,
2013-03-01 00:30:00,16.2,10.6,30.09,NE,48,9.0,16.0,78,0.00,,---,0.00,VWS V15.00,2013-03-01 05:30:00,
2013-03-01 00:31:00,17.8,11.8,30.08,NE,42,8.0,17.0,77,0.00,,---,0.00,VWS V14.01,2013-03-01 05:31:00,
2013-03-01 00:36:00,17.5,11.5,30.08,East,81,8.0,10.0,77,0.00,,---,0.00,VWS V14.01,2013-03-01 05:36:00,
2013-03-01 00:41:00,17.2,11.5,30.08,ENE,69,7.0,11.0,78,0.00,,---,0.00,VWS V14.01,2013-03-01 05:41:00,
2013-03-01 00:46:00,17.1,11.4,30.08,NE,46,6.0,14.0,78,0.00,,---,0.00,VWS V14.01,2013-03-01 05:46:00,
2013-03-01 00:51:00,17.1,11.4,30.08,NE,44,6.0,14.0,78,0.00,,---,0.00,VWS V14.01,2013-03-01 05:51:00,
2013-03-01 00:56:00,17.0,11.3,30.08,ENE,77,9.0,14.0,78,0.00,,---,0.00,VWS V14.01,2013-03-01 05:56:00,
2013-03-01 01:00:00,15.8,10.2,30.10,ENE,61,10.0,17.0,78,0.00,,---,0.00,VWS V15.00,2013-03-01 06:00:00,
2013-03-01 01:01:00,17.0,11.3,30.08,ENE,64,1.0,14.0,78,0.00,,---,0.00,VWS V14.01,2013-03-01 06:01:00,
2013-03-01 01:06:00,16.8,11.1,30.09,NE,55,6.0,14.0,78,0.00,,---,0.00,VWS V14.01,2013-03-01 06:06:00,
2013-03-01 01:11:00,16.8,11.1,30.09,ENE,57,9.0,15.0,78,0.00,,---,0.00,VWS V14.01,2013-03-01 06:11:00,
2013-03-01 01:16:00,16.8,10.9,30.09,NE,42,7.0,16.0,77,0.00,,---,0.00,VWS V14.01,2013-03-01 06:16:00,
2013-03-01 01:21:00,16.6,10.9,30.09,NE,40,9.0,16.0,78,0.00,,---,0.00,VWS V14.01,2013-03-01 06:21:00,
2013-03-01 01:26:00,16.4,10.8,30.09,NE,48,7.0,16.0,78,0.00,,---,0.00,VWS V14.01,2013-03-01 06:26:00,
2013-03-01 01:30:00,15.1,9.8,30.10,ENE,60,10.0,19.0,79,0.00,,---,0.00,VWS V15.00,2013-03-01 06:30:00,
2013-03-01 01:31:00,16.2,10.6,30.09,NE,48,9.0,16.0,78,0.00,,---,0.00,VWS V14.01,2013-03-01 06:31:00,
2013-03-01 01:36:00,16.1,10.5,30.10,NNE,33,12.0,14.0,78,0.00,,---,0.00,VWS V14.01,2013-03-01 06:36:00,
2013-03-01 01:41:00,16.1,10.5,30.09,ENE,57,8.0,14.0,78,0.00,,---,0.00,VWS V14.01,2013-03-01 06:41:00,
2013-03-01 01:46:00,16.0,10.4,30.10,NE,37,10.0,14.0,78,0.00,,---,0.00,VWS V14.01,2013-03-01 06:46:00,
2013-03-01 01:51:00,15.9,10.3,30.10,ENE,77,7.0,17.0,78,0.00,,---,0.00,VWS V14.01,2013-03-01 06:51:00,
2013-03-01 01:56:00,15.9,10.3,30.10,NE,55,6.0,17.0,78,0.00,,---,0.00,VWS V14.01,2013-03-01 06:56:00,
2013-03-01 02:00:00,14.6,9.6,30.11,NE,52,3.0,17.0,80,0.00,,---,0.00,VWS V15.00,2013-03-01 07:00:00,
2013-03-01 02:01:00,15.8,10.2,30.10,NE,52,5.0,17.0,78,0.00,,---,0.00,VWS V14.01,2013-03-01 07:01:00,
2013-03-01 02:06:00,15.6,10.3,30.10,ENE,58,8.0,9.0,79,0.00,,---,0.00,VWS V14.01,2013-03-01 07:06:00,
2013-03-01 02:11:00,15.4,10.1,30.11,NE,53,7.0,13.0,79,0.00,,---,0.00,VWS V14.01,2013-03-01 07:11:00,
2013-03-01 02:16:00,15.3,10.0,30.10,NE,39,9.0,15.0,79,0.00,,---,0.00,VWS V14.01,2013-03-01 07:16:00,
2013-03-01 02:21:00,15.1,9.8,30.10,NE,50,6.0,15.0,79,0.00,,---,0.00,VWS V14.01,2013-03-01 07:21:00,
2013-03-01 02:26:00,15.1,9.8,30.10,NE,39,14.0,15.0,79,0.00,,---,0.00,VWS V14.01,2013-03-01 07:26:00,
2013-03-01 02:30:00,14.1,9.4,30.11,ENE,59,2.0,9.0,81,0.00,,---,0.00,VWS V15.00,2013-03-01 07:30:00,
2013-03-01 02:31:00,15.1,9.8,30.10,ENE,65,12.0,14.0,79,0.00,,---,0.00,VWS V14.01,2013-03-01 07:31:00,
2013-03-01 02:36:00,15.2,9.9,30.10,NE,48,10.0,16.0,79,0.00,,---,0.00,VWS V14.01,2013-03-01 07:36:00,
2013-03-01 02:42:00,15.2,9.9,30.10,NE,56,7.0,17.0,79,0.00,,---,0.00,VWS V14.01,2013-03-01 07:42:00,
2013-03-01 02:47:00,15.0,9.7,30.10,ENE,59,5.0,17.0,79,0.00,,---,0.00,VWS V14.01,2013-03-01 07:47:00,
2013-03-01 02:52:00,14.9,9.6,30.11,ENE,58,6.0,17.0,79,0.00,,---,0.00,VWS V14.01,2013-03-01 07:52:00,
2013-03-01 02:57:00,14.7,9.7,30.11,NNE,25,1.0,17.0,80,0.00,,---,0.00,VWS V14.01,2013-03-01 07:57:00,
2013-03-01 03:00:00,13.7,9.0,30.12,NE,50,5.0,9.0,81,0.00,,---,0.00,VWS V15.00,2013-03-01 08:00:00,
2013-03-01 03:02:00,14.6,9.6,30.11,NE,47,5.0,5.0,80,0.00,,---,0.00,VWS V14.01,2013-03-01 08:02:00,
2013-03-01 03:07:00,14.5,9.5,30.11,NE,49,5.0,8.0,80,0.00,,---,0.00,VWS V14.01,2013-03-01 08:07:00,
2013-03-01 03:12:00,14.3,9.3,30.11,ENE,63,2.0,9.0,80,0.00,,---,0.00,VWS V14.01,2013-03-01 08:12:00,
2013-03-01 03:17:00,14.2,9.4,30.11,NE,42,3.0,9.0,81,0.00,,---,0.00,VWS V14.01,2013-03-01 08:17:00,
2013-03-01 03:22:00,14.1,9.4,30.11,NE,48,5.0,9.0,81,0.00,,---,0.00,VWS V14.01,2013-03-01 08:22:00,
2013-03-01 03:27:00,14.1,9.4,30.11,NE,40,5.0,9.0,81,0.00,,---,0.00,VWS V14.01,2013-03-01 08:27:00,
2013-03-01 03:30:00,13.2,8.8,30.12,ENE,63,9.0,11.0,82,0.00,,---,0.00,VWS V15.00,2013-03-01 08:30:00,
2013-03-01 03:32:00,14.1,9.4,30.11,NE,50,8.0,8.0,81,0.00,,---,0.00,VWS V14.01,2013-03-01 08:32:00,
2013-03-01 03:37:00,14.0,9.3,30.11,NE,43,2.0,8.0,81,0.00,,---,0.00,VWS V14.01,2013-03-01 08:37:00,
2013-03-01 03:42:00,14.0,9.3,30.11,ENE,65,5.0,8.0,81,0.00,,---,0.00,VWS V14.01,2013-03-01 08:42:00,
2013-03-01 03:47:00,14.0,9.3,30.12,NE,55,7.0,8.0,81,0.00,,---,0.00,VWS V14.01,2013-03-01 08:47:00,
2013-03-01 03:52:00,13.9,9.2,30.11,NNE,30,5.0,9.0,81,0.00,,---,0.00,VWS V14.01,2013-03-01 08:52:00,
2013-03-01 03:57:00,13.8,9.1,30.12,NE,52,6.0,9.0,81,0.00,,---,0.00,VWS V14.01,2013-03-01 08:57:00,
2013-03-01 04:00:00,12.9,8.4,30.14,ENE,58,6.0,10.0,82,0.00,,---,0.00,VWS V15.00,2013-03-01 09:00:00,
2013-03-01 04:02:00,13.7,9.0,30.12,NE,48,6.0,6.0,81,0.00,,---,0.00,VWS V14.01,2013-03-01 09:02:00,
2013-03-01 04:07:00,13.6,8.9,30.12,NE,41,5.0,9.0,81,0.00,,---,0.00,VWS V14.01,2013-03-01 09:07:00,
2013-03-01 04:12:00,13.4,8.9,30.12,NE,44,5.0,9.0,82,0.00,,---,0.00,VWS V14.01,2013-03-01 09:12:00,
2013-03-01 04:17:00,13.2,8.8,30.12,NE,52,6.0,9.0,82,0.00,,---,0.00,VWS V14.01,2013-03-01 09:17:00,
2013-03-01 04:22:00,13.2,8.8,30.12,ENE,61,8.0,10.0,82,0.00,,---,0.00,VWS V14.01,2013-03-01 09:22:00,
2013-03-01 04:27:00,13.1,8.6,30.12,ENE,67,9.0,11.0,82,0.00,,---,0.00,VWS V14.01,2013-03-01 09:27:00,
2013-03-01 04:30:00,12.5,8.1,30.15,ENE,66,4.0,15.0,82,0.00,,---,0.00,VWS V15.00,2013-03-01 09:30:00,
2013-03-01 04:32:00,13.1,8.6,30.12,ENE,67,9.0,9.0,82,0.00,,---,0.00,VWS V14.01,2013-03-01 09:32:00,
2013-03-01 04:37:00,13.1,8.6,30.13,NE,50,6.0,9.0,82,0.00,,---,0.00,VWS V14.01,2013-03-01 09:37:00,
2013-03-01 04:42:00,13.1,8.6,30.13,ENE,71,4.0,10.0,82,0.00,,---,0.00,VWS V14.01,2013-03-01 09:42:00,
2013-03-01 04:47:00,13.0,8.6,30.13,ENE,58,6.0,10.0,82,0.00,,---,0.00,VWS V14.01,2013-03-01 09:47:00,
2013-03-01 04:52:00,12.9,8.4,30.13,ENE,67,7.0,10.0,82,0.00,,---,0.00,VWS V14.01,2013-03-01 09:52:00,
2013-03-01 04:57:00,13.0,8.6,30.14,ENE,67,4.0,10.0,82,0.00,,---,0.00,VWS V14.01,2013-03-01 09:57:00,
2013-03-01 05:00:00,13.2,8.5,30.14,NNE,29,5.0,9.0,81,0.00,,---,0.00,VWS V15.00,2013-03-01 10:00:00,
2013-03-01 05:02:00,12.9,8.4,30.14,ENE,59,7.0,9.0,82,0.00,,---,0.00,VWS V14.01,2013-03-01 10:02:00,
2013-03-01 05:07:00,12.7,8.3,30.14,NE,52,7.0,13.0,82,0.00,,---,0.00,VWS V14.01,2013-03-01 10:07:00,
2013-03-01 05:12:00,12.6,8.2,30.14,ENE,73,12.0,15.0,82,0.00,,---,0.00,VWS V14.01,2013-03-01 10:12:00,
2013-03-01 05:17:00,12.6,8.2,30.15,NE,55,7.0,15.0,82,0.00,,---,0.00,VWS V14.01,2013-03-01 10:17:00,
2013-03-01 05:22:00,12.6,8.2,30.15,NE,56,5.0,15.0,82,0.00,,---,0.00,VWS V14.01,2013-03-01 10:22:00,
2013-03-01 05:27:00,12.5,8.1,30.15,NE,52,5.0,15.0,82,0.00,,---,0.00,VWS V14.01,2013-03-01 10:27:00,
2013-03-01 05:30:00,13.3,8.6,30.15,NE,42,3.0,10.0,81,0.00,,---,0.00,VWS V15.00,2013-03-01 10:30:00,
2013-03-01 05:32:00,12.5,8.1,30.14,NE,52,1.0,8.0,82,0.00,,---,0.00,VWS V14.01,2013-03-01 10:32:00,
2013-03-01 05:37:00,12.5,8.1,30.14,NE,47,3.0,8.0,82,0.00,,---,0.00,VWS V14.01,2013-03-01 10:37:00,
2013-03-01 05:42:00,12.6,8.2,30.14,ENE,66,2.0,8.0,82,0.00,,---,0.00,VWS V14.01,2013-03-01 10:42:00,
2013-03-01 05:47:00,12.8,8.4,30.15,NE,48,5.0,9.0,82,0.00,,---,0.00,VWS V14.01,2013-03-01 10:47:00,
2013-03-01 05:53:00,13.1,8.4,30.14,NE,44,6.0,9.0,81,0.00,,---,0.00,VWS V14.01,2013-03-01 10:53:00,
2013-03-01 05:57:00,13.1,8.4,30.14,NE,52,5.0,9.0,81,0.00,,---,0.00,VWS V14.01,2013-03-01 10:57:00,
2013-03-01 06:00:00,13.7,9.2,30.16,NNE,29,8.0,9.0,82,0.00,,---,0.00,VWS V15.00,2013-03-01 11:00:00,
2013-03-01 06:03:00,13.2,8.2,30.15,NE,40,3.0,7.0,80,0.00,,---,0.00,VWS V14.01,2013-03-01 11:03:00,
2013-03-01 06:08:00,13.1,8.1,30.14,NE,46,3.0,8.0,80,0.00,,---,0.00,VWS V14.01,2013-03-01 11:08:00,
2013-03-01 06:13:00,13.1,8.4,30.15,NE,36,3.0,8.0,81,0.00,,---,0.00,VWS V14.01,2013-03-01 11:13:00,
2013-03-01 06:18:00,13.1,8.4,30.15,NE,37,4.0,8.0,81,0.00,,---,0.00,VWS V14.01,2013-03-01 11:18:00,
2013-03-01 06:23:00,13.2,8.5,30.15,NNE,23,9.0,10.0,81,0.00,,---,0.00,VWS V14.01,2013-03-01 11:23:00,
2013-03-01 06:28:00,13.2,8.5,30.15,NNE,29,3.0,10.0,81,0.00,,---,0.00,VWS V14.01,2013-03-01 11:28:00,
2013-03-01 06:30:00,14.2,10.0,30.16,NNE,32,7.0,10.0,83,0.00,,---,0.00,VWS V15.00,2013-03-01 11:30:00,
2013-03-01 06:33:00,13.3,8.6,30.15,NE,49,3.0,7.0,81,0.00,,---,0.00,VWS V14.01,2013-03-01 11:33:00,
2013-03-01 06:38:00,13.4,8.7,30.15,NE,42,5.0,9.0,81,0.00,,---,0.00,VWS V14.01,2013-03-01 11:38:00,
2013-03-01 06:43:00,13.4,8.7,30.15,NNE,21,7.0,9.0,81,0.00,,---,0.00,VWS V14.01,2013-03-01 11:43:00,
2013-03-01 06:48:00,13.5,8.8,30.16,NNE,28,8.0,9.0,81,0.00,,---,0.00,VWS V14.01,2013-03-01 11:48:00,
2013-03-01 06:53:00,13.6,8.9,30.16,NE,48,5.0,9.0,81,0.00,,---,0.00,VWS V14.01,2013-03-01 11:53:00,
2013-03-01 06:58:00,13.7,9.2,30.16,NE,46,7.0,9.0,82,0.00,,---,0.00,VWS V14.01,2013-03-01 11:58:00,
2013-03-01 07:00:00,15.0,10.5,30.18,NE,38,9.0,10.0,82,0.00,,---,0.00,VWS V15.00,2013-03-01 12:00:00,
2013-03-01 07:03:00,13.8,9.3,30.16,NNE,29,10.0,10.0,82,0.00,,---,0.00,VWS V14.01,2013-03-01 12:03:00,
2013-03-01 07:08:00,13.9,9.4,30.16,NNE,29,7.0,10.0,82,0.00,,---,0.00,VWS V14.01,2013-03-01 12:08:00,
2013-03-01 07:13:00,13.9,9.4,30.16,NNE,31,4.0,10.0,82,0.00,,---,0.00,VWS V14.01,2013-03-01 12:13:00,
2013-03-01 07:18:00,14.0,9.5,30.16,North,3,6.0,10.0,82,0.00,,---,0.00,VWS V14.01,2013-03-01 12:18:00,
2013-03-01 07:23:00,14.1,9.6,30.16,NE,36,7.0,10.0,82,0.00,,---,0.00,VWS V14.01,2013-03-01 12:23:00,
2013-03-01 07:28:00,14.1,9.9,30.16,NNE,29,4.0,10.0,83,0.00,,---,0.00,VWS V14.01,2013-03-01 12:28:00,
2013-03-01 07:30:00,15.4,10.6,30.18,NE,54,11.0,14.0,81,0.00,,---,0.00,VWS V15.00,2013-03-01 12:30:00,
2013-03-01 07:33:00,14.2,10.0,30.16,NE,45,3.0,8.0,83,0.00,,---,0.00,VWS V14.01,2013-03-01 12:33:00,
2013-03-01 07:38:00,14.4,10.2,30.17,NE,43,5.0,8.0,83,0.00,,---,0.00,VWS V14.01,2013-03-01 12:38:00,
2013-03-01 07:43:00,14.5,10.3,30.17,NE,40,7.0,8.0,83,0.00,,---,0.00,VWS V14.01,2013-03-01 12:43:00,
2013-03-01 07:48:00,14.7,10.5,30.17,ENE,60,2.0,10.0,83,0.00,,---,0.00,VWS V14.01,2013-03-01 12:48:00,
2013-03-01 07:53:00,14.8,10.3,30.17,NE,42,6.0,10.0,82,0.00,,---,0.00,VWS V14.01,2013-03-01 12:53:00,
2013-03-01 07:58:00,14.9,10.4,30.17,NE,44,5.0,10.0,82,0.00,,---,0.00,VWS V14.01,2013-03-01 12:58:00,
2013-03-01 08:00:00,15.7,10.4,30.19,NE,51,5.0,15.0,79,0.00,,---,0.00,VWS V15.00,2013-03-01 13:00:00,
2013-03-01 08:03:00,15.0,10.5,30.18,NE,34,7.0,10.0,82,0.00,,---,0.00,VWS V14.01,2013-03-01 13:03:00,
2013-03-01 08:08:00,15.2,10.7,30.18,NE,34,7.0,11.0,82,0.00,,---,0.00,VWS V14.01,2013-03-01 13:08:00,
2013-03-01 08:13:00,15.3,10.8,30.18,ENE,65,4.0,13.0,82,0.00,,---,0.00,VWS V14.01,2013-03-01 13:13:00,
2013-03-01 08:18:00,15.4,10.6,30.18,NE,44,6.0,13.0,81,0.00,,---,0.00,VWS V14.01,2013-03-01 13:18:00,
2013-03-01 08:23:00,15.4,10.6,30.18,ENE,71,8.0,13.0,81,0.00,,---,0.00,VWS V14.01,2013-03-01 13:23:00,
2013-03-01 08:28:00,15.4,10.6,30.18,NE,46,9.0,13.0,81,0.00,,---,0.00,VWS V14.01,2013-03-01 13:28:00,
2013-03-01 08:30:00,15.8,10.4,30.19,ENE,65,9.0,18.0,79,0.00,,---,0.00,VWS V15.00,2013-03-01 13:30:00,
2013-03-01 08:33:00,15.4,10.6,30.18,NE,53,5.0,11.0,81,0.00,,---,0.00,VWS V14.01,2013-03-01 13:33:00,
2013-03-01 08:38:00,15.2,10.1,30.18,NE,44,11.0,15.0,80,0.00,,---,0.00,VWS V14.01,2013-03-01 13:38:00,
2013-03-01 08:43:00,15.3,10.2,30.18,NE,42,6.0,15.0,80,0.00,,---,0.00,VWS V14.01,2013-03-01 13:43:00,
2013-03-01 08:48:00,15.3,10.2,30.19,NE,52,9.0,15.0,80,0.00,,---,0.00,VWS V14.01,2013-03-01 13:48:00,
2013-03-01 08:53:00,15.4,10.4,30.18,NE,49,13.0,15.0,80,0.00,,---,0.00,VWS V14.01,2013-03-01 13:53:00,
2013-03-01 08:58:00,15.5,10.4,30.19,ENE,67,9.0,15.0,80,0.00,,---,0.00,VWS V14.01,2013-03-01 13:58:00,
2013-03-01 09:00:00,15.8,10.2,30.19,NE,42,5.0,16.0,78,0.00,,---,0.00,VWS V15.00,2013-03-01 14:00:00,
2013-03-01 09:03:00,15.8,10.7,30.19,ENE,71,7.0,16.0,80,0.00,,---,0.00,VWS V14.01,2013-03-01 14:03:00,
2013-03-01 09:08:00,15.5,10.2,30.19,NE,54,8.0,16.0,79,0.00,,---,0.00,VWS V14.01,2013-03-01 14:08:00,
2013-03-01 09:13:00,15.2,9.9,30.19,NE,52,7.0,18.0,79,0.00,,---,0.00,VWS V14.01,2013-03-01 14:13:00,
2013-03-01 09:18:00,15.3,10.0,30.19,NE,40,14.0,18.0,79,0.00,,---,0.00,VWS V14.01,2013-03-01 14:18:00,
2013-03-01 09:23:00,15.4,10.1,30.19,East,79,10.0,18.0,79,0.00,,---,0.00,VWS V14.01,2013-03-01 14:23:00,
2013-03-01 09:28:00,15.6,10.3,30.19,NNE,30,8.0,18.0,79,0.00,,---,0.00,VWS V14.01,2013-03-01 14:28:00,
2013-03-01 09:30:00,16.5,10.6,30.19,NE,54,10.0,17.0,77,0.00,,---,0.00,VWS V15.00,2013-03-01 14:30:00,
2013-03-01 09:33:00,16.0,10.6,30.19,NE,45,13.0,13.0,79,0.00,,---,0.00,VWS V14.01,2013-03-01 14:33:00,
2013-03-01 09:38:00,16.1,10.8,30.19,NE,53,11.0,16.0,79,0.00,,---,0.00,VWS V14.01,2013-03-01 14:38:00,
2013-03-01 09:43:00,16.0,10.4,30.19,NE,36,7.0,16.0,78,0.00,,---,0.00,VWS V14.01,2013-03-01 14:43:00,
2013-03-01 09:48:00,15.9,10.3,30.19,NE,54,13.0,16.0,78,0.00,,---,0.00,VWS V14.01,2013-03-01 14:48:00,
2013-03-01 09:53:00,15.9,10.3,30.19,NE,50,9.0,16.0,78,0.00,,---,0.00,VWS V14.01,2013-03-01 14:53:00,
2013-03-01 09:58:00,16.0,10.4,30.19,NNE,27,10.0,16.0,78,0.00,,---,0.00,VWS V14.01,2013-03-01 14:58:00,
2013-03-01 10:00:00,17.4,10.9,30.19,NE,50,9.0,18.0,75,0.00,,---,0.00,VWS V15.00,2013-03-01 15:00:00,
2013-03-01 10:03:00,15.9,10.3,30.19,East,91,8.0,9.0,78,0.00,,---,0.00,VWS V14.01,2013-03-01 15:03:00,
2013-03-01 10:08:00,16.2,10.6,30.19,NE,47,10.0,13.0,78,0.00,,---,0.00,VWS V14.01,2013-03-01 15:08:00,
2013-03-01 10:13:00,16.2,10.6,30.19,NE,52,3.0,13.0,78,0.00,,---,0.00,VWS V14.01,2013-03-01 15:13:00,
2013-03-01 10:18:00,16.2,10.3,30.20,ENE,57,16.0,16.0,77,0.00,,---,0.00,VWS V14.01,2013-03-01 15:18:00,
2013-03-01 10:23:00,16.5,10.9,30.19,ENE,66,7.0,17.0,78,0.00,,---,0.00,VWS V14.01,2013-03-01 15:23:00,
2013-03-01 10:28:00,16.8,11.1,30.19,NNE,28,13.0,17.0,78,0.00,,---,0.00,VWS V14.01,2013-03-01 15:28:00,
2013-03-01 10:30:00,19.0,11.5,30.20,ENE,71,8.0,17.0,72,0.00,,---,0.00,VWS V15.00,2013-03-01 15:30:00,
2013-03-01 10:33:00,16.6,10.9,30.19,NE,35,4.0,14.0,78,0.00,,---,0.00,VWS V14.01,2013-03-01 15:33:00,
2013-03-01 10:38:00,16.8,10.9,30.19,NE,40,14.0,14.0,77,0.00,,---,0.00,VWS V14.01,2013-03-01 15:38:00,
2013-03-01 10:43:00,17.5,11.5,30.19,NE,35,9.0,14.0,77,0.00,,---,0.00,VWS V14.01,2013-03-01 15:43:00,
2013-03-01 10:48:00,17.5,10.9,30.19,NE,51,14.0,18.0,75,0.00,,---,0.00,VWS V14.01,2013-03-01 15:48:00,
2013-03-01 10:53:00,17.5,11.2,30.19,NE,56,13.0,18.0,76,0.00,,---,0.00,VWS V14.01,2013-03-01 15:53:00,
2013-03-01 10:58:00,17.5,11.2,30.19,North,8,10.0,18.0,76,0.00,,---,0.00,VWS V14.01,2013-03-01 15:58:00,
2013-03-01 11:00:00,19.2,11.4,30.20,NE,54,13.0,16.0,71,0.00,,---,0.00,VWS V15.00,2013-03-01 16:00:00,
2013-03-01 11:03:00,17.3,10.8,30.19,NE,49,6.0,15.0,75,0.00,,---,0.00,VWS V14.01,2013-03-01 16:03:00,
2013-03-01 11:08:00,17.7,11.1,30.20,ENE,61,9.0,17.0,75,0.00,,---,0.00,VWS V14.01,2013-03-01 16:08:00,
2013-03-01 11:13:00,17.6,11.0,30.20,ENE,61,9.0,17.0,75,0.00,,---,0.00,VWS V14.01,2013-03-01 16:13:00,
2013-03-01 11:19:00,17.7,11.1,30.20,NE,42,8.0,17.0,75,0.00,,---,0.00,VWS V14.01,2013-03-01 16:19:00,
2013-03-01 11:24:00,18.4,11.5,30.20,NE,47,6.0,17.0,74,0.00,,---,0.00,VWS V14.01,2013-03-01 16:24:00,
2013-03-01 11:29:00,18.7,11.5,30.20,ENE,76,10.0,17.0,73,0.00,,---,0.00,VWS V14.01,2013-03-01 16:29:00,
2013-03-01 11:30:00,20.3,11.1,30.19,NNE,13,8.0,16.0,67,0.00,,---,0.00,VWS V15.00,2013-03-01 16:30:00,
2013-03-01 11:34:00,18.7,11.2,30.20,NNE,17,10.0,13.0,72,0.00,,---,0.00,VWS V14.01,2013-03-01 16:34:00,
2013-03-01 11:39:00,19.1,11.6,30.20,NE,53,13.0,13.0,72,0.00,,---,0.00,VWS V14.01,2013-03-01 16:39:00,
2013-03-01 11:44:00,19.2,11.4,30.19,NE,44,7.0,16.0,71,0.00,,---,0.00,VWS V14.01,2013-03-01 16:44:00,
2013-03-01 11:49:00,18.3,10.8,30.20,NE,42,13.0,16.0,72,0.00,,---,0.00,VWS V14.01,2013-03-01 16:49:00,
2013-03-01 11:54:00,18.4,11.2,30.20,NE,46,6.0,16.0,73,0.00,,---,0.00,VWS V14.01,2013-03-01 16:54:00,
2013-03-01 11:59:00,19.2,11.7,30.20,NNE,21,9.0,16.0,72,0.00,,---,0.00,VWS V14.01,2013-03-01 16:59:00,
2013-03-01 12:00:00,21.5,12.3,30.17,NNE,29,9.0,13.0,67,0.00,,---,0.00,VWS V15.00,2013-03-01 17:00:00,
2013-03-01 12:04:00,19.8,11.9,30.19,NNE,26,7.0,15.0,71,0.00,,---,0.00,VWS V14.01,2013-03-01 17:04:00,
2013-03-01 12:09:00,20.3,11.8,30.20,NNE,17,13.0,16.0,69,0.00,,---,0.00,VWS V14.01,2013-03-01 17:09:00,
2013-03-01 12:14:00,19.9,10.7,30.19,NE,56,6.0,16.0,67,0.00,,---,0.00,VWS V14.01,2013-03-01 17:14:00,
2013-03-01 12:19:00,20.5,11.6,30.19,ENE,61,7.0,16.0,68,0.00,,---,0.00,VWS V14.01,2013-03-01 17:19:00,
2013-03-01 12:24:00,20.5,11.3,30.19,ENE,63,8.0,16.0,67,0.00,,---,0.00,VWS V14.01,2013-03-01 17:24:00,
2013-03-01 12:29:00,20.8,11.6,30.19,North,10,9.0,16.0,67,0.00,,---,0.00,VWS V14.01,2013-03-01 17:29:00,
2013-03-01 12:30:00,22.0,12.4,30.18,NE,52,7.0,11.0,66,0.00,,---,0.00,VWS V15.00,2013-03-01 17:30:00,
2013-03-01 12:34:00,19.9,10.7,30.19,NNE,25,5.0,11.0,67,0.00,,---,0.00,VWS V14.01,2013-03-01 17:34:00,
2013-03-01 12:39:00,19.7,10.9,30.19,NNE,28,9.0,11.0,68,0.00,,---,0.00,VWS V14.01,2013-03-01 17:39:00,
2013-03-01 12:44:00,20.0,11.1,30.19,NNE,32,4.0,11.0,68,0.00,,---,0.00,VWS V14.01,2013-03-01 17:44:00,
2013-03-01 12:49:00,20.3,11.4,30.18,North,360,7.0,11.0,68,0.00,,---,0.00,VWS V14.01,2013-03-01 17:49:00,
2013-03-01 12:54:00,20.5,11.6,30.18,NNE,23,5.0,13.0,68,0.00,,---,0.00,VWS V14.01,2013-03-01 17:54:00,
2013-03-01 12:59:00,21.2,12.0,30.18,NNE,13,7.0,13.0,67,0.00,,---,0.00,VWS V14.01,2013-03-01 17:59:00,
2013-03-01 13:00:00,23.9,13.9,30.17,NNE,20,7.0,12.0,65,0.00,,---,0.00,VWS V15.00,2013-03-01 18:00:00,
2013-03-01 13:04:00,21.7,12.1,30.18,NNE,27,5.0,9.0,66,0.00,,---,0.00,VWS V14.01,2013-03-01 18:04:00,
2013-03-01 13:09:00,21.7,12.1,30.18,NNE,14,6.0,9.0,66,0.00,,---,0.00,VWS V14.01,2013-03-01 18:09:00,
2013-03-01 13:14:00,21.3,11.7,30.18,NNE,20,4.0,11.0,66,0.00,,---,0.00,VWS V14.01,2013-03-01 18:14:00,
2013-03-01 13:19:00,21.5,11.9,30.18,NNE,29,11.0,11.0,66,0.00,,---,0.00,VWS V14.01,2013-03-01 18:19:00,
2013-03-01 13:24:00,21.6,12.0,30.18,NNW,348,9.0,11.0,66,0.00,,---,0.00,VWS V14.01,2013-03-01 18:24:00,
2013-03-01 13:29:00,21.9,12.3,30.18,NNE,19,10.0,11.0,66,0.00,,---,0.00,VWS V14.01,2013-03-01 18:29:00,
2013-03-01 13:30:00,25.8,14.2,30.16,NE,56,5.0,15.0,61,0.00,,---,0.00,VWS V15.00,2013-03-01 18:30:00,
2013-03-01 13:34:00,22.4,12.8,30.17,NNE,12,7.0,8.0,66,0.00,,---,0.00,VWS V14.01,2013-03-01 18:34:00,
2013-03-01 13:39:00,22.9,13.3,30.17,North,11,8.0,10.0,66,0.00,,---,0.00,VWS V14.01,2013-03-01 18:39:00,
2013-03-01 13:44:00,23.2,13.5,30.17,NNE,22,7.0,12.0,66,0.00,,---,0.00,VWS V14.01,2013-03-01 18:44:00,
2013-03-01 13:49:00,23.2,13.2,30.17,North,8,11.0,12.0,65,0.00,,---,0.00,VWS V14.01,2013-03-01 18:49:00,
2013-03-01 13:54:00,23.5,13.5,30.17,NNE,15,6.0,12.0,65,0.00,,---,0.00,VWS V14.01,2013-03-01 18:54:00,
2013-03-01 13:59:00,23.8,13.8,30.17,NNW,336,5.0,12.0,65,0.00,,---,0.00,VWS V14.01,2013-03-01 18:59:00,
2013-03-01 14:00:00,27.1,14.3,30.16,NE,41,7.0,16.0,58,0.00,,---,0.00,VWS V15.00,2013-03-01 19:00:00,
2013-03-01 14:04:00,24.1,14.4,30.17,NNE,25,3.0,10.0,66,0.00,,---,0.00,VWS V14.01,2013-03-01 19:04:00,
2013-03-01 14:09:00,24.6,14.2,30.16,NNE,21,10.0,15.0,64,0.00,,---,0.00,VWS V14.01,2013-03-01 19:09:00,
2013-03-01 14:14:00,25.5,14.7,30.17,NE,42,11.0,15.0,63,0.00,,---,0.00,VWS V14.01,2013-03-01 19:14:00,
2013-03-01 14:19:00,25.7,14.5,30.16,NNE,16,9.0,15.0,62,0.00,,---,0.00,VWS V14.01,2013-03-01 19:19:00,
2013-03-01 14:24:00,25.4,13.8,30.16,NE,38,9.0,15.0,61,0.00,,---,0.00,VWS V14.01,2013-03-01 19:24:00,
2013-03-01 14:29:00,25.7,14.1,30.16,ENE,65,7.0,15.0,61,0.00,,---,0.00,VWS V14.01,2013-03-01 19:29:00,
2013-03-01 14:30:00,28.0,14.4,30.15,NE,50,10.0,17.0,56,0.00,,---,0.00,VWS V15.00,2013-03-01 19:30:00,
2013-03-01 14:34:00,26.3,14.7,30.16,ENE,65,7.0,13.0,61,0.00,,---,0.00,VWS V14.01,2013-03-01 19:34:00,
2013-03-01 14:39:00,26.8,14.8,30.16,NNE,25,14.0,14.0,60,0.00,,---,0.00,VWS V14.01,2013-03-01 19:39:00,
2013-03-01 14:44:00,26.4,14.0,30.16,NNE,31,9.0,14.0,59,0.00,,---,0.00,VWS V14.01,2013-03-01 19:44:00,
2013-03-01 14:49:00,26.7,13.9,30.16,NE,42,8.0,16.0,58,0.00,,---,0.00,VWS V14.01,2013-03-01 19:49:00,
2013-03-01 14:55:00,27.0,14.2,30.16,ENE,60,14.0,16.0,58,0.00,,---,0.00,VWS V14.01,2013-03-01 19:55:00,
2013-03-01 15:00:00,27.0,14.2,30.16,NE,42,8.0,16.0,58,0.00,,---,0.00,VWS V14.01,2013-03-01 20:00:00,
2013-03-01 15:05:00,27.0,13.8,30.16,ENE,57,9.0,14.0,57,0.00,,---,0.00,VWS V14.01,2013-03-01 20:05:00,
2013-03-01 15:10:00,27.0,13.8,30.16,NE,50,9.0,14.0,57,0.00,,---,0.00,VWS V14.01,2013-03-01 20:10:00,
2013-03-01 15:15:00,27.1,13.9,30.15,NE,54,5.0,14.0,57,0.00,,---,0.00,VWS V14.01,2013-03-01 20:15:00,
2013-03-01 15:20:00,27.4,14.2,30.15,ENE,73,5.0,14.0,57,0.00,,---,0.00,VWS V14.01,2013-03-01 20:20:00,
2013-03-01 15:25:00,28.2,14.9,30.15,NE,52,8.0,14.0,57,0.00,,---,0.00,VWS V14.01,2013-03-01 20:25:00,
2013-03-01 15:30:00,28.1,14.4,30.15,NE,42,8.0,17.0,56,0.00,,---,0.00,VWS V14.01,2013-03-01 20:30:00,
2013-03-01 15:35:00,28.1,14.4,30.15,NE,38,11.0,17.0,56,0.00,,---,0.00,VWS V14.01,2013-03-01 20:35:00,
2013-03-01 15:40:00,28.3,14.6,30.15,NE,52,10.0,17.0,56,0.00,,---,0.00,VWS V14.01,2013-03-01 20:40:00,
2013-03-01 15:45:00,28.4,14.3,30.15,ENE,66,14.0,17.0,55,0.00,,---,0.00,VWS V14.01,2013-03-01 20:45:00,
2013-03-01 15:50:00,28.0,13.9,30.15,NE,56,10.0,17.0,55,0.00,,---,0.00,VWS V14.01,2013-03-01 20:50:00,
2013-03-01 15:55:00,28.5,14.8,30.15,NE,46,3.0,17.0,56,0.00,,---,0.00,VWS V14.01,2013-03-01 20:55:00,
2013-03-01 16:00:00,28.6,14.5,30.14,NE,49,13.0,17.0,55,0.00,,---,0.00,VWS V14.01,2013-03-01 21:00:00,
2013-03-01 16:05:00,28.4,14.3,30.15,NE,56,14.0,17.0,55,0.00,,---,0.00,VWS V14.01,2013-03-01 21:05:00,
2013-03-01 16:10:00,28.8,14.7,30.15,ENE,76,8.0,17.0,55,0.00,,---,0.00,VWS V14.01,2013-03-01 21:10:00,
2013-03-01 16:15:00,28.8,14.3,30.15,ENE,73,8.0,17.0,54,0.00,,---,0.00,VWS V14.01,2013-03-01 21:15:00,
2013-03-01 16:20:00,29.0,14.4,30.14,NE,50,6.0,17.0,54,0.00,,---,0.00,VWS V14.01,2013-03-01 21:20:00,
2013-03-01 16:25:00,29.2,14.6,30.14,NE,44,11.0,17.0,54,0.00,,---,0.00,VWS V14.01,2013-03-01 21:25:00,
2013-03-01 16:30:00,29.1,15.0,30.15,ENE,65,7.0,17.0,55,0.00,,---,0.00,VWS V14.01,2013-03-01 21:30:00,
2013-03-01 16:35:00,29.0,14.9,30.15,NE,37,8.0,13.0,55,0.00,,---,0.00,VWS V14.01,2013-03-01 21:35:00,
2013-03-01 16:40:00,28.8,15.1,30.15,ENE,60,5.0,15.0,56,0.00,,---,0.00,VWS V14.01,2013-03-01 21:40:00,
2013-03-01 16:45:00,28.7,15.0,30.15,East,83,5.0,15.0,56,0.00,,---,0.00,VWS V14.01,2013-03-01 21:45:00,
2013-03-01 16:50:00,28.8,14.7,30.15,ENE,66,3.0,15.0,55,0.00,,---,0.00,VWS V14.01,2013-03-01 21:50:00,
2013-03-01 16:55:00,28.8,14.3,30.15,NE,35,11.0,15.0,54,0.00,,---,0.00,VWS V14.01,2013-03-01 21:55:00,
2013-03-01 17:00:00,28.4,13.9,30.15,ENE,61,11.0,15.0,54,0.00,,---,0.00,VWS V14.01,2013-03-01 22:00:00,
2013-03-01 17:05:00,28.3,14.6,30.15,NE,53,5.0,11.0,56,0.00,,---,0.00,VWS V14.01,2013-03-01 22:05:00,
2013-03-01 17:10:00,28.2,14.5,30.15,NE,40,9.0,15.0,56,0.00,,---,0.00,VWS V14.01,2013-03-01 22:10:00,
2013-03-01 17:15:00,28.1,14.4,30.15,East,79,8.0,15.0,56,0.00,,---,0.00,VWS V14.01,2013-03-01 22:15:00,
2013-03-01 17:20:00,28.0,14.3,30.15,ENE,62,7.0,15.0,56,0.00,,---,0.00,VWS V14.01,2013-03-01 22:20:00,
2013-03-01 17:25:00,27.9,14.6,30.15,ENE,61,5.0,15.0,57,0.00,,---,0.00,VWS V14.01,2013-03-01 22:25:00,
2013-03-01 17:30:00,27.7,14.5,30.16,NE,42,3.0,15.0,57,0.00,,---,0.00,VWS V14.01,2013-03-01 22:30:00,
2013-03-01 17:35:00,27.4,14.6,30.16,ENE,66,4.0,11.0,58,0.00,,---,0.00,VWS V14.01,2013-03-01 22:35:00,
2013-03-01 17:40:00,27.2,14.8,30.16,ENE,67,11.0,14.0,59,0.00,,---,0.00,VWS V14.01,2013-03-01 22:40:00,
2013-03-01 17:45:00,27.0,14.6,30.16,ENE,58,7.0,14.0,59,0.00,,---,0.00,VWS V14.01,2013-03-01 22:45:00,
2013-03-01 17:50:00,26.8,14.4,30.16,NE,48,3.0,14.0,59,0.00,,---,0.00,VWS V14.01,2013-03-01 22:50:00,
2013-03-01 17:55:00,26.8,14.0,30.16,NE,56,7.0,14.0,58,0.00,,---,0.00,VWS V14.01,2013-03-01 22:55:00,
2013-03-01 18:00:00,25.2,14.0,30.16,NNW,331,8.0,14.0,62,0.00,,---,0.00,VWS V14.01,2013-03-01 23:00:00,
2013-03-01 18:05:00,24.9,13.7,30.17,NNW,329,11.0,14.0,62,0.00,,---,0.00,VWS V14.01,2013-03-01 23:05:00,
2013-03-01 18:10:00,25.8,13.9,30.17,ENE,57,5.0,14.0,60,0.00,,---,0.00,VWS V14.01,2013-03-01 23:10:00,
2013-03-01 18:15:00,25.6,13.7,30.17,ENE,73,9.0,14.0,60,0.00,,---,0.00,VWS V14.01,2013-03-01 23:15:00,
2013-03-01 18:20:00,25.5,13.6,30.17,ENE,64,9.0,17.0,60,0.00,,---,0.00,VWS V14.01,2013-03-01 23:20:00,
2013-03-01 18:25:00,25.4,13.5,30.17,East,82,9.0,17.0,60,0.00,,---,0.00,VWS V14.01,2013-03-01 23:25:00,
2013-03-01 18:30:00,25.3,13.4,30.17,East,90,7.0,17.0,60,0.00,,---,0.00,VWS V14.01,2013-03-01 23:30:00,
2013-03-01 18:35:00,25.3,13.4,30.17,ENE,63,5.0,14.0,60,0.00,,---,0.00,VWS V14.01,2013-03-01 23:35:00,
2013-03-01 18:40:00,25.1,13.2,30.17,NE,54,7.0,17.0,60,0.00,,---,0.00,VWS V14.01,2013-03-01 23:40:00,
2013-03-01 18:45:00,24.9,13.0,30.18,East,85,8.0,17.0,60,0.00,,---,0.00,VWS V14.01,2013-03-01 23:45:00,
2013-03-01 18:50:00,24.5,13.0,30.18,ENE,75,11.0,17.0,61,0.00,,---,0.00,VWS V14.01,2013-03-01 23:50:00,
2013-03-01 18:55:00,24.2,13.1,30.18,ENE,58,7.0,17.0,62,0.00,,---,0.00,VWS V14.01,2013-03-01 23:55:00,
2013-03-01 19:00:00,22.5,12.5,30.19,East,91,10.0,20.0,65,0.00,,---,0.00,VWS V15.00,2013-03-02 00:00:00,
2013-03-01 19:01:00,24.0,12.9,30.18,East,79,9.0,17.0,62,0.00,,---,0.00,VWS V14.01,2013-03-02 00:01:00,
2013-03-01 19:06:00,24.1,13.0,30.18,East,84,11.0,13.0,62,0.00,,---,0.00,VWS V14.01,2013-03-02 00:06:00,
2013-03-01 19:11:00,24.0,12.9,30.18,East,100,5.0,17.0,62,0.00,,---,0.00,VWS V14.01,2013-03-02 00:11:00,
2013-03-01 19:16:00,23.9,12.8,30.18,ENE,76,8.0,17.0,62,0.00,,---,0.00,VWS V14.01,2013-03-02 00:16:00,
2013-03-01 19:21:00,23.6,12.5,30.19,East,88,7.0,17.0,62,0.00,,---,0.00,VWS V14.01,2013-03-02 00:21:00,
2013-03-01 19:26:00,23.4,12.3,30.19,ENE,58,5.0,17.0,62,0.00,,---,0.00,VWS V14.01,2013-03-02 00:26:00,
2013-03-01 19:30:00,21.5,11.6,30.20,ENE,58,10.0,20.0,65,0.00,,---,0.00,VWS V15.00,2013-03-02 00:30:00,
2013-03-01 19:31:00,23.1,12.4,30.19,ENE,60,8.0,17.0,63,0.00,,---,0.00,VWS V14.01,2013-03-02 00:31:00,
2013-03-01 19:36:00,22.7,12.4,30.19,ENE,58,11.0,11.0,64,0.00,,---,0.00,VWS V14.01,2013-03-02 00:36:00,
2013-03-01 19:41:00,22.5,12.5,30.19,NE,54,14.0,14.0,65,0.00,,---,0.00,VWS V14.01,2013-03-02 00:41:00,
2013-03-01 19:46:00,22.3,12.3,30.19,NE,48,13.0,16.0,65,0.00,,---,0.00,VWS V14.01,2013-03-02 00:46:00,
2013-03-01 19:51:00,22.2,12.6,30.19,ENE,73,17.0,17.0,66,0.00,,---,0.00,VWS V14.01,2013-03-02 00:51:00,
2013-03-01 19:56:00,22.4,12.4,30.19,East,84,8.0,20.0,65,0.00,,---,0.00,VWS V14.01,2013-03-02 00:56:00,
2013-03-01 20:01:00,22.5,12.5,30.19,East,91,10.0,20.0,65,0.00,,---,0.00,VWS V14.01,2013-03-02 01:01:00,
2013-03-01 20:06:00,22.4,12.1,30.19,ENE,71,12.0,19.0,64,0.00,,---,0.00,VWS V14.01,2013-03-02 01:06:00,
2013-03-01 20:11:00,22.2,11.9,30.19,East,79,5.0,19.0,64,0.00,,---,0.00,VWS V14.01,2013-03-02 01:11:00,
2013-03-01 20:16:00,22.0,12.1,30.19,East,100,7.0,19.0,65,0.00,,---,0.00,VWS V14.01,2013-03-02 01:16:00,
2013-03-01 20:21:00,22.0,12.1,30.19,NE,52,11.0,20.0,65,0.00,,---,0.00,VWS V14.01,2013-03-02 01:21:00,
2013-03-01 20:26:00,21.8,11.9,30.20,East,81,13.0,20.0,65,0.00,,---,0.00,VWS V14.01,2013-03-02 01:26:00,
2013-03-01 20:30:00,18.4,10.3,30.21,ENE,77,9.0,18.0,70,0.00,,---,0.00,VWS V15.00,2013-03-02 01:30:00,
2013-03-01 20:31:00,21.5,11.6,30.20,ENE,69,7.0,10.0,65,0.00,,---,0.00,VWS V14.01,2013-03-02 01:31:00,
2013-03-01 20:36:00,21.0,11.8,30.20,East,84,3.0,10.0,67,0.00,,---,0.00,VWS V14.01,2013-03-02 01:36:00,
2013-03-01 20:41:00,20.7,11.8,30.20,ENE,67,10.0,14.0,68,0.00,,---,0.00,VWS V14.01,2013-03-02 01:41:00,
2013-03-01 20:46:00,20.4,11.5,30.20,ENE,74,7.0,14.0,68,0.00,,---,0.00,VWS V14.01,2013-03-02 01:46:00,
2013-03-01 20:51:00,20.1,11.6,30.20,ENE,77,10.0,14.0,69,0.00,,---,0.00,VWS V14.01,2013-03-02 01:51:00,
2013-03-01 20:56:00,20.1,11.2,30.20,East,83,10.0,17.0,68,0.00,,---,0.00,VWS V14.01,2013-03-02 01:56:00,
2013-03-01 21:00:00,18.2,10.1,30.21,NE,49,6.0,19.0,70,0.00,,---,0.00,VWS V15.00,2013-03-02 02:00:00,
2013-03-01 21:01:00,20.0,11.1,30.20,East,80,11.0,18.0,68,0.00,,---,0.00,VWS V14.01,2013-03-02 02:01:00,
2013-03-01 21:06:00,19.7,10.9,30.21,ENE,69,8.0,18.0,68,0.00,,---,0.00,VWS V14.01,2013-03-02 02:06:00,
2013-03-01 21:11:00,19.1,10.9,30.21,ENE,78,10.0,18.0,70,0.00,,---,0.00,VWS V14.01,2013-03-02 02:11:00,
2013-03-01 21:16:00,18.8,10.6,30.21,NE,47,6.0,18.0,70,0.00,,---,0.00,VWS V14.01,2013-03-02 02:16:00,
2013-03-01 21:21:00,18.6,10.8,30.21,ENE,58,3.0,18.0,71,0.00,,---,0.00,VWS V14.01,2013-03-02 02:21:00,
2013-03-01 21:26:00,18.5,10.7,30.22,East,84,11.0,18.0,71,0.00,,---,0.00,VWS V14.01,2013-03-02 02:26:00,
2013-03-01 21:30:00,17.4,9.9,30.21,ENE,65,11.0,11.0,72,0.00,,---,0.00,VWS V15.00,2013-03-02 02:30:00,
2013-03-01 21:31:00,18.4,10.3,30.22,ENE,65,11.0,17.0,70,0.00,,---,0.00,VWS V14.01,2013-03-02 02:31:00,
2013-03-01 21:36:00,18.5,10.4,30.21,East,92,11.0,19.0,70,0.00,,---,0.00,VWS V14.01,2013-03-02 02:36:00,
2013-03-01 21:41:00,18.4,9.9,30.21,NE,52,14.0,19.0,69,0.00,,---,0.00,VWS V14.01,2013-03-02 02:41:00,
2013-03-01 21:46:00,18.4,9.9,30.21,ENE,70,3.0,19.0,69,0.00,,---,0.00,VWS V14.01,2013-03-02 02:46:00,
2013-03-01 21:51:00,18.4,9.9,30.21,ENE,64,7.0,19.0,69,0.00,,---,0.00,VWS V14.01,2013-03-02 02:51:00,
2013-03-01 21:56:00,18.4,10.3,30.21,ENE,63,9.0,19.0,70,0.00,,---,0.00,VWS V14.01,2013-03-02 02:56:00,
2013-03-01 22:01:00,18.2,10.1,30.21,NE,49,6.0,19.0,70,0.00,,---,0.00,VWS V14.01,2013-03-02 03:01:00,
2013-03-01 22:07:00,18.1,10.0,30.21,NE,56,6.0,10.0,70,0.00,,---,0.00,VWS V14.01,2013-03-02 03:07:00,
2013-03-01 22:12:00,17.9,10.1,30.21,ENE,58,6.0,10.0,71,0.00,,---,0.00,VWS V14.01,2013-03-02 03:12:00,
2013-03-01 22:17:00,17.6,9.8,30.21,ENE,69,4.0,10.0,71,0.00,,---,0.00,VWS V14.01,2013-03-02 03:17:00,
2013-03-01 22:22:00,17.5,9.7,30.21,ENE,60,5.0,10.0,71,0.00,,---,0.00,VWS V14.01,2013-03-02 03:22:00,
2013-03-01 22:27:00,17.5,9.7,30.21,NE,54,7.0,11.0,71,0.00,,---,0.00,VWS V14.01,2013-03-02 03:27:00,
2013-03-01 22:30:00,16.2,9.1,30.20,ENE,65,5.0,13.0,73,0.00,,---,0.00,VWS V15.00,2013-03-02 03:30:00,
2013-03-01 22:32:00,17.5,10.0,30.21,NE,54,6.0,12.0,72,0.00,,---,0.00,VWS V14.01,2013-03-02 03:32:00,
2013-03-01 22:37:00,17.5,10.0,30.21,ENE,67,8.0,12.0,72,0.00,,---,0.00,VWS V14.01,2013-03-02 03:37:00,
2013-03-01 22:42:00,17.6,10.1,30.20,ENE,68,10.0,12.0,72,0.00,,---,0.00,VWS V14.01,2013-03-02 03:42:00,
2013-03-01 22:47:00,17.6,10.1,30.20,NE,48,7.0,12.0,72,0.00,,---,0.00,VWS V14.01,2013-03-02 03:47:00,
2013-03-01 22:52:00,17.5,10.0,30.20,NE,48,10.0,12.0,72,0.00,,---,0.00,VWS V14.01,2013-03-02 03:52:00,
2013-03-01 22:57:00,17.3,9.8,30.20,ENE,69,8.0,12.0,72,0.00,,---,0.00,VWS V14.01,2013-03-02 03:57:00,
2013-03-01 23:02:00,17.1,9.9,30.21,NE,54,1.0,12.0,73,0.00,,---,0.00,VWS V14.01,2013-03-02 04:02:00,
2013-03-01 23:07:00,16.8,9.7,30.21,NE,53,7.0,12.0,73,0.00,,---,0.00,VWS V14.01,2013-03-02 04:07:00,
2013-03-01 23:12:00,16.5,9.4,30.21,ENE,64,11.0,12.0,73,0.00,,---,0.00,VWS V14.01,2013-03-02 04:12:00,
2013-03-01 23:17:00,16.3,9.5,30.20,ENE,67,9.0,12.0,74,0.00,,---,0.00,VWS V14.01,2013-03-02 04:17:00,
2013-03-01 23:22:00,16.3,9.2,30.20,NE,53,9.0,12.0,73,0.00,,---,0.00,VWS V14.01,2013-03-02 04:22:00,
2013-03-01 23:27:00,16.3,9.2,30.20,ENE,69,7.0,13.0,73,0.00,,---,0.00,VWS V14.01,2013-03-02 04:27:00,
2013-03-01 23:30:00,14.9,8.4,30.20,ENE,68,0.0,17.0,75,0.00,,---,0.00,VWS V15.00,2013-03-02 04:30:00,
2013-03-01 23:32:00,16.2,9.1,30.20,NE,41,3.0,8.0,73,0.00,,---,0.00,VWS V14.01,2013-03-02 04:32:00,
2013-03-01 23:37:00,16.3,9.5,30.20,ENE,75,1.0,17.0,74,0.00,,---,0.00,VWS V14.01,2013-03-02 04:37:00,
2013-03-01 23:42:00,16.1,9.0,30.20,East,79,9.0,17.0,73,0.00,,---,0.00,VWS V14.01,2013-03-02 04:42:00,
2013-03-01 23:47:00,16.1,9.3,30.20,NE,56,6.0,17.0,74,0.00,,---,0.00,VWS V14.01,2013-03-02 04:47:00,
2013-03-01 23:52:00,15.8,9.0,30.20,NE,56,3.0,17.0,74,0.00,,---,0.00,VWS V14.01,2013-03-02 04:52:00,
2013-03-01 23:57:00,15.7,8.9,30.20,NNE,27,3.0,17.0,74,0.00,,---,0.00,VWS V14.01,2013-03-02 04:57:00,